createdAt,value
2022-10-05T00:02:24.781Z,14.76
2022-10-05T00:04:58.830Z,14.78
2022-10-05T00:07:25.623Z,14.71
2022-10-05T00:09:57.716Z,14.80
2022-10-05T00:12:26.115Z,14.76
2022-10-05T00:15:00.399Z,14.92
2022-10-05T00:17:30.416Z,14.76
2022-10-05T00:19:57.176Z,14.74
2022-10-05T00:22:33.986Z,14.77
2022-10-05T00:25:11.173Z,14.62
2022-10-05T00:27:38.977Z,14.79
2022-10-05T00:30:18.860Z,14.75
2022-10-05T00:32:46.230Z,14.59
2022-10-05T00:35:14.464Z,14.69
2022-10-05T00:37:41.955Z,14.39
2022-10-05T00:41:00.539Z,14.55
2022-10-05T00:43:30.113Z,14.56
2022-10-05T00:46:08.861Z,14.41
2022-10-05T00:48:48.917Z,14.37
2022-10-05T00:51:33.705Z,14.58
2022-10-05T00:54:43.703Z,14.28
2022-10-05T00:57:28.859Z,14.55
2022-10-05T01:00:09.427Z,14.51
2022-10-05T01:03:06.786Z,14.48
2022-10-05T01:05:52.257Z,14.42
2022-10-05T01:08:47.911Z,14.35
2022-10-05T01:11:17.538Z,14.36
2022-10-05T01:13:56.578Z,14.18
2022-10-05T01:16:23.478Z,14.15
2022-10-05T01:19:13.265Z,14.03
2022-10-05T01:21:57.120Z,14.04
2022-10-05T01:24:57.790Z,14.02
2022-10-05T01:27:33.616Z,14.11
2022-10-05T01:30:12.214Z,14.10
2022-10-05T01:32:59.381Z,14.20
2022-10-05T01:35:34.399Z,14.19
2022-10-05T01:38:24.380Z,14.03
2022-10-05T01:40:56.597Z,14.19
2022-10-05T01:43:44.197Z,14.12
2022-10-05T01:46:20.147Z,14.05
2022-10-05T01:49:23.979Z,14.05
2022-10-05T01:52:09.054Z,14.10
2022-10-05T01:54:35.847Z,13.86
2022-10-05T01:57:05.589Z,14.00
2022-10-05T01:59:35.326Z,13.82
2022-10-05T02:02:07.886Z,13.86
2022-10-05T02:05:01.568Z,13.69
2022-10-05T02:08:12.227Z,13.73
2022-10-05T02:10:51.851Z,13.74
2022-10-05T02:13:32.225Z,13.77
2022-10-05T02:16:04.531Z,13.15
2022-10-05T02:18:40.723Z,13.10
2022-10-05T02:21:09.016Z,12.94
2022-10-05T02:23:39.538Z,13.13
2022-10-05T02:26:11.265Z,12.77
2022-10-05T02:28:46.732Z,13.11
2022-10-05T02:31:25.729Z,13.31
2022-10-05T02:33:52.677Z,13.43
2022-10-05T02:36:29.402Z,13.55
2022-10-05T02:39:01.044Z,13.33
2022-10-05T02:41:53.351Z,13.46
2022-10-05T02:44:37.292Z,13.54
2022-10-05T02:47:28.019Z,13.50
2022-10-05T02:50:14.686Z,13.48
2022-10-05T02:52:57.420Z,13.43
2022-10-05T02:55:44.516Z,13.45
2022-10-05T02:58:18.483Z,13.30
2022-10-05T03:01:03.335Z,13.33
2022-10-05T03:03:43.200Z,13.35
2022-10-05T03:06:29.091Z,13.30
2022-10-05T03:09:01.267Z,13.23
2022-10-05T03:11:43.751Z,13.32
2022-10-05T03:14:23.120Z,13.40
2022-10-05T03:17:18.228Z,13.18
2022-10-05T03:19:50.897Z,13.11
2022-10-05T03:22:36.515Z,13.18
2022-10-05T03:25:40.668Z,13.04
2022-10-05T03:28:19.059Z,13.08
2022-10-05T03:31:03.005Z,13.07
2022-10-05T03:34:11.273Z,13.13
2022-10-05T03:36:53.736Z,13.12
2022-10-05T03:39:31.576Z,13.07
2022-10-05T03:42:15.168Z,12.97
2022-10-05T03:44:44.742Z,13.09
2022-10-05T03:47:37.251Z,13.21
2022-10-05T03:50:25.568Z,13.02
2022-10-05T03:53:00.244Z,13.00
2022-10-05T03:55:39.407Z,13.02
2022-10-05T03:58:15.940Z,13.03
2022-10-05T04:00:47.660Z,12.92
2022-10-05T04:03:25.958Z,13.12
2022-10-05T04:06:03.100Z,12.91
2022-10-05T04:09:00.341Z,13.11
2022-10-05T04:11:37.881Z,13.05
2022-10-05T04:14:22.771Z,13.23
2022-10-05T04:16:57.858Z,12.73
2022-10-05T04:19:32.480Z,12.94
2022-10-05T04:22:03.821Z,12.57
2022-10-05T04:24:40.113Z,12.66
2022-10-05T04:27:17.598Z,12.73
2022-10-05T04:30:02.842Z,12.45
2022-10-05T04:32:38.852Z,12.44
2022-10-05T04:35:31.949Z,12.45
2022-10-05T04:38:22.819Z,12.49
2022-10-05T04:41:24.691Z,12.48
2022-10-05T04:44:01.311Z,12.38
2022-10-05T04:47:05.783Z,12.65
2022-10-05T04:49:51.409Z,12.85
2022-10-05T04:52:30.422Z,13.13
2022-10-05T04:55:25.121Z,13.25
2022-10-05T04:58:02.327Z,13.04
2022-10-05T05:00:38.274Z,13.06
2022-10-05T05:03:26.898Z,13.06
2022-10-05T05:06:17.327Z,13.45
2022-10-05T05:08:58.594Z,13.68
2022-10-05T05:12:03.697Z,13.78
2022-10-05T05:14:47.427Z,13.65
2022-10-05T05:17:32.553Z,13.76
2022-10-05T05:20:19.539Z,13.81
2022-10-05T05:23:05.917Z,13.89
2022-10-05T05:25:50.552Z,13.70
2022-10-05T05:28:34.531Z,13.56
2022-10-05T05:31:27.802Z,13.49
2022-10-05T05:34:47.058Z,13.82
2022-10-05T05:37:38.151Z,13.00
2022-10-05T05:40:16.233Z,13.70
2022-10-05T05:42:51.622Z,14.06
2022-10-05T05:45:42.634Z,14.22
2022-10-05T05:48:42.309Z,14.40
2022-10-05T05:51:19.153Z,14.46
2022-10-05T05:53:50.942Z,14.52
2022-10-05T05:56:26.059Z,14.60
2022-10-05T05:58:59.369Z,14.65
2022-10-05T06:01:47.646Z,14.68
2022-10-05T06:04:22.124Z,14.55
2022-10-05T06:06:52.632Z,14.69
2022-10-05T06:09:33.876Z,14.77
2022-10-05T06:12:58.426Z,14.79
2022-10-05T06:15:41.076Z,14.90
2022-10-05T06:18:18.642Z,14.98
2022-10-05T06:20:54.753Z,15.19
2022-10-05T06:23:35.898Z,15.11
2022-10-05T06:26:28.676Z,15.20
2022-10-05T06:29:09.052Z,15.07
2022-10-05T06:32:03.259Z,15.33
2022-10-05T06:34:39.474Z,15.42
2022-10-05T06:37:38.861Z,15.22
2022-10-05T06:40:18.495Z,15.40
2022-10-05T06:43:17.742Z,15.38
2022-10-05T06:46:19.533Z,15.34
2022-10-05T06:49:29.265Z,15.41
2022-10-05T06:52:46.396Z,15.35
2022-10-05T06:55:22.347Z,15.27
2022-10-05T06:57:56.043Z,15.44
2022-10-05T07:00:29.320Z,15.34
2022-10-05T07:03:15.804Z,15.62
2022-10-05T07:05:45.742Z,15.81
2022-10-05T07:08:38.298Z,15.78
2022-10-05T07:11:19.920Z,15.72
2022-10-05T07:14:08.718Z,15.88
2022-10-05T07:16:58.912Z,15.99
2022-10-05T07:19:55.827Z,16.26
2022-10-05T07:22:34.673Z,16.24
2022-10-05T07:25:08.534Z,16.44
2022-10-05T07:28:00.575Z,16.24
2022-10-05T07:30:29.619Z,16.47
2022-10-05T07:33:01.866Z,16.58
2022-10-05T07:35:58.882Z,16.70
2022-10-05T07:38:31.026Z,16.86
2022-10-05T07:41:15.427Z,16.82
2022-10-05T07:44:11.645Z,16.99
2022-10-05T07:46:54.569Z,17.18
2022-10-05T07:49:29.161Z,16.99
2022-10-05T07:52:00.780Z,17.23
2022-10-05T07:54:38.309Z,17.48
2022-10-05T07:57:19.459Z,17.31
2022-10-05T08:00:01.478Z,17.61
2022-10-05T08:02:41.977Z,17.77
2022-10-05T08:05:15.713Z,17.90
2022-10-05T08:07:43.086Z,17.95
2022-10-05T08:10:41.687Z,18.26
2022-10-05T08:13:24.777Z,18.52
2022-10-05T08:15:57.345Z,18.26
2022-10-05T08:18:50.326Z,18.62
2022-10-05T08:21:23.059Z,18.62
2022-10-05T08:24:30.635Z,18.83
2022-10-05T08:27:20.300Z,18.85
2022-10-05T08:30:04.561Z,18.97
2022-10-05T08:32:51.328Z,19.33
2022-10-05T08:35:34.003Z,19.30
2022-10-05T08:38:04.389Z,19.15
2022-10-05T08:40:50.308Z,18.88
2022-10-05T08:43:54.934Z,19.30
2022-10-05T08:46:49.344Z,19.72
2022-10-05T08:49:36.246Z,19.84
2022-10-05T08:52:21.179Z,19.95
2022-10-05T08:54:59.897Z,20.11
2022-10-05T08:57:46.525Z,20.33
2022-10-05T09:00:45.712Z,20.55
2022-10-05T09:03:25.760Z,20.37
2022-10-05T09:06:21.848Z,20.75
2022-10-05T09:09:03.231Z,20.79
2022-10-05T09:11:35.711Z,20.84
2022-10-05T09:14:21.628Z,20.55
2022-10-05T09:16:58.963Z,21.49
2022-10-05T09:19:53.611Z,21.51
2022-10-05T09:22:30.237Z,21.63
2022-10-05T09:25:03.846Z,21.26
2022-10-05T09:27:37.380Z,21.53
2022-10-05T09:30:21.781Z,21.55
2022-10-05T09:33:03.703Z,22.10
2022-10-05T09:36:12.404Z,22.06
2022-10-05T09:39:08.024Z,22.06
2022-10-05T09:42:26.020Z,21.88
2022-10-05T09:45:17.779Z,22.42
2022-10-05T09:48:32.304Z,22.46
2022-10-05T09:51:01.911Z,22.08
2022-10-05T09:54:03.795Z,22.43
2022-10-05T09:56:50.111Z,22.78
2022-10-05T09:59:48.103Z,23.16
2022-10-05T10:02:24.549Z,22.76
2022-10-05T10:05:25.627Z,22.54
2022-10-05T10:08:06.000Z,22.66
2022-10-05T10:11:09.810Z,22.88
2022-10-05T10:13:42.692Z,22.91
2022-10-05T10:16:43.471Z,23.19
2022-10-05T10:19:18.790Z,23.10
2022-10-05T10:22:11.182Z,22.74
2022-10-05T10:24:56.089Z,23.12
2022-10-05T10:27:54.880Z,23.62
2022-10-05T10:30:56.418Z,23.49
2022-10-05T10:33:55.733Z,23.56
2022-10-05T10:36:51.911Z,22.98
2022-10-05T10:39:32.062Z,23.03
2022-10-05T10:42:11.193Z,22.84
2022-10-05T10:44:58.856Z,23.49
2022-10-05T10:47:39.538Z,23.61
2022-10-05T10:50:37.013Z,23.83
2022-10-05T10:53:18.768Z,23.89
2022-10-05T10:55:58.173Z,23.42
2022-10-05T10:58:49.780Z,22.99
2022-10-05T11:01:30.045Z,22.33
2022-10-05T11:04:08.838Z,22.20
2022-10-05T11:07:02.373Z,22.61
2022-10-05T11:09:45.555Z,22.88
2022-10-05T11:12:34.807Z,23.03
2022-10-05T11:15:23.075Z,23.10
2022-10-05T11:18:05.422Z,23.22
2022-10-05T11:20:50.446Z,23.37
2022-10-05T11:23:17.203Z,23.15
2022-10-05T11:25:49.757Z,23.79
2022-10-05T11:28:27.773Z,24.13
2022-10-05T11:31:31.100Z,24.50
2022-10-05T11:34:04.075Z,24.64
2022-10-05T11:36:39.920Z,25.06
2022-10-05T11:39:42.431Z,24.91
2022-10-05T11:42:30.898Z,25.51
2022-10-05T11:45:21.872Z,25.63
2022-10-05T11:48:00.596Z,26.18
2022-10-05T11:50:33.951Z,26.31
2022-10-05T11:53:08.593Z,26.61
2022-10-05T11:55:42.624Z,26.89
2022-10-05T11:58:20.463Z,27.04
2022-10-05T12:00:59.074Z,26.62
2022-10-05T12:03:51.021Z,26.17
2022-10-05T12:06:55.363Z,26.85
2022-10-05T12:10:14.337Z,27.36
2022-10-05T12:13:04.583Z,27.03
2022-10-05T12:15:37.913Z,26.23
2022-10-05T12:18:17.519Z,25.42
2022-10-05T12:21:16.838Z,26.61
2022-10-05T12:23:53.742Z,27.03
2022-10-05T12:26:31.873Z,27.71
2022-10-05T12:29:23.724Z,28.16
2022-10-05T12:32:03.224Z,28.47
2022-10-05T12:34:48.816Z,28.57
2022-10-05T12:37:49.032Z,28.12
2022-10-05T12:40:46.215Z,27.80
2022-10-05T12:44:03.759Z,27.97
2022-10-05T12:46:44.751Z,28.03
2022-10-05T12:49:50.921Z,28.37
2022-10-05T12:52:26.544Z,28.86
2022-10-05T12:55:03.350Z,29.06
2022-10-05T12:57:53.449Z,28.98
2022-10-05T13:00:23.195Z,29.54
2022-10-05T13:03:03.593Z,29.59
2022-10-05T13:05:51.791Z,29.81
2022-10-05T13:08:30.639Z,30.05
2022-10-05T13:11:06.157Z,30.27
2022-10-05T13:13:48.242Z,30.26
2022-10-05T13:16:15.734Z,29.80
2022-10-05T13:19:00.887Z,30.46
2022-10-05T13:21:56.747Z,30.79
2022-10-05T13:24:29.886Z,31.42
2022-10-05T13:27:05.678Z,31.81
2022-10-05T13:29:40.557Z,31.73
2022-10-05T13:32:22.430Z,31.74
2022-10-05T13:34:57.523Z,32.31
2022-10-05T13:37:41.584Z,31.92
2022-10-05T13:40:28.327Z,32.07
2022-10-05T13:43:20.241Z,32.32
2022-10-05T13:45:57.010Z,32.53
2022-10-05T13:48:42.720Z,32.55
2022-10-05T13:51:18.458Z,32.70
2022-10-05T13:53:56.217Z,32.51
2022-10-05T13:56:32.559Z,31.77
2022-10-05T13:59:15.737Z,31.19
2022-10-05T14:01:46.409Z,30.77
2022-10-05T14:04:24.762Z,30.99
2022-10-05T14:06:54.859Z,31.16
2022-10-05T14:09:29.173Z,31.17
2022-10-05T14:12:11.927Z,31.19
2022-10-05T14:14:54.663Z,31.08
2022-10-05T14:17:33.492Z,30.23
2022-10-05T14:20:06.637Z,29.58
2022-10-05T14:22:41.474Z,29.12
2022-10-05T14:25:08.303Z,28.43
2022-10-05T14:27:48.379Z,28.23
2022-10-05T14:30:15.199Z,28.06
2022-10-05T14:33:00.512Z,27.54
2022-10-05T14:35:43.797Z,27.33
2022-10-05T14:38:26.369Z,27.19
2022-10-05T14:41:04.041Z,27.28
2022-10-05T14:43:33.761Z,27.10
2022-10-05T14:46:01.396Z,26.82
2022-10-05T14:48:40.460Z,26.50
2022-10-05T14:51:12.887Z,26.38
2022-10-05T14:53:43.415Z,26.24
2022-10-05T14:56:17.282Z,25.96
2022-10-05T14:58:59.708Z,25.81
2022-10-05T15:01:39.269Z,25.53
2022-10-05T15:04:35.198Z,25.24
2022-10-05T15:07:20.299Z,24.82
2022-10-05T15:10:03.833Z,24.69
2022-10-05T15:12:43.545Z,24.61
2022-10-05T15:15:28.442Z,24.29
2022-10-05T15:18:23.197Z,23.95
2022-10-05T15:21:15.026Z,24.13
2022-10-05T15:23:50.635Z,24.06
2022-10-05T15:26:37.674Z,24.03
2022-10-05T15:29:27.266Z,24.00
2022-10-05T15:32:14.799Z,24.05
2022-10-05T15:34:49.128Z,23.96
2022-10-05T15:37:42.061Z,23.68
2022-10-05T15:41:08.304Z,23.66
2022-10-05T15:43:55.284Z,23.58
2022-10-05T15:46:56.472Z,23.55
2022-10-05T15:49:26.257Z,23.38
2022-10-05T15:52:05.193Z,23.36
2022-10-05T15:55:02.978Z,23.25
2022-10-05T15:57:36.671Z,23.11
2022-10-05T16:00:11.517Z,23.13
2022-10-05T16:02:56.658Z,23.07
2022-10-05T16:06:02.385Z,22.97
2022-10-05T16:08:54.346Z,22.77
2022-10-05T16:11:34.091Z,22.86
2022-10-05T16:14:19.354Z,22.57
2022-10-05T16:17:09.685Z,22.73
2022-10-05T16:19:48.119Z,22.26
2022-10-05T16:22:43.368Z,22.23
2022-10-05T16:25:47.077Z,21.89
2022-10-05T16:28:49.925Z,21.91
2022-10-05T16:31:23.342Z,21.80
2022-10-05T16:34:17.116Z,21.75
2022-10-05T16:37:19.422Z,21.59
2022-10-05T16:40:00.144Z,21.50
2022-10-05T16:42:44.087Z,21.47
2022-10-05T16:45:44.995Z,21.35
2022-10-05T16:48:16.991Z,21.53
2022-10-05T16:51:41.379Z,21.61
2022-10-05T16:54:44.202Z,21.71
2022-10-05T16:57:28.626Z,21.61
2022-10-05T17:00:15.685Z,21.72
2022-10-05T17:02:54.642Z,21.71
2022-10-05T17:05:44.183Z,21.57
2022-10-05T17:08:36.848Z,21.42
2022-10-05T17:11:46.281Z,20.84
2022-10-05T17:14:20.257Z,20.27
2022-10-05T17:17:00.277Z,20.49
2022-10-05T17:19:46.679Z,20.49
2022-10-05T17:22:25.846Z,20.08
2022-10-05T17:25:06.258Z,20.14
2022-10-05T17:27:51.040Z,19.49
2022-10-05T17:30:23.228Z,19.65
2022-10-05T17:33:04.560Z,19.79
2022-10-05T17:35:47.524Z,19.64
2022-10-05T17:38:20.231Z,19.13
2022-10-05T17:41:16.495Z,19.32
2022-10-05T17:44:18.982Z,19.37
2022-10-05T17:46:51.622Z,19.39
2022-10-05T17:49:34.151Z,19.50
2022-10-05T17:52:23.348Z,19.51
2022-10-05T17:55:08.602Z,19.21
2022-10-05T17:57:36.991Z,19.46
2022-10-05T18:00:32.064Z,19.50
2022-10-05T18:02:59.429Z,19.74
2022-10-05T18:05:30.388Z,19.58
2022-10-05T18:08:12.674Z,19.60
2022-10-05T18:11:07.262Z,19.48
2022-10-05T18:13:46.400Z,19.15
2022-10-05T18:16:33.478Z,18.78
2022-10-05T18:19:01.583Z,18.69
2022-10-05T18:21:34.372Z,19.13
2022-10-05T18:24:26.720Z,19.14
2022-10-05T18:26:59.500Z,18.92
2022-10-05T18:30:02.893Z,18.87
2022-10-05T18:32:43.433Z,18.64
2022-10-05T18:35:24.884Z,18.43
2022-10-05T18:37:54.571Z,18.14
2022-10-05T18:40:37.455Z,18.29
2022-10-05T18:43:19.366Z,18.33
2022-10-05T18:45:58.541Z,18.14
2022-10-05T18:49:03.025Z,18.22
2022-10-05T18:51:54.704Z,17.98
2022-10-05T18:54:56.563Z,17.72
2022-10-05T18:57:30.004Z,17.93
2022-10-05T19:00:04.077Z,17.85
2022-10-05T19:02:36.934Z,17.69
2022-10-05T19:05:29.180Z,17.81
2022-10-05T19:08:08.064Z,17.24
2022-10-05T19:10:45.314Z,17.33
2022-10-05T19:13:21.846Z,17.31
2022-10-05T19:16:31.271Z,17.48
2022-10-05T19:19:34.967Z,17.50
2022-10-05T19:22:29.331Z,17.55
2022-10-05T19:25:14.924Z,17.51
2022-10-05T19:28:04.326Z,17.38
2022-10-05T19:30:57.164Z,17.26
2022-10-05T19:33:47.047Z,17.26
2022-10-05T19:36:22.863Z,17.18
2022-10-05T19:38:55.595Z,17.24
2022-10-05T19:41:53.355Z,17.36
2022-10-05T19:44:31.389Z,17.22
2022-10-05T19:47:14.925Z,17.42
2022-10-05T19:49:56.787Z,17.38
2022-10-05T19:52:36.400Z,17.51
2022-10-05T19:55:15.080Z,17.39
2022-10-05T19:57:57.604Z,17.33
2022-10-05T20:00:33.082Z,17.42
2022-10-05T20:03:26.618Z,17.31
2022-10-05T20:05:54.915Z,17.17
2022-10-05T20:08:25.292Z,17.10
2022-10-05T20:11:10.723Z,16.89
2022-10-05T20:13:39.983Z,16.94
2022-10-05T20:16:35.583Z,17.20
2022-10-05T20:19:41.525Z,17.40
2022-10-05T20:22:27.097Z,17.46
2022-10-05T20:25:01.096Z,17.24
2022-10-05T20:27:35.734Z,16.29
2022-10-05T20:30:02.700Z,16.20
2022-10-05T20:32:30.903Z,16.35
2022-10-05T20:34:57.736Z,16.38
2022-10-05T20:37:24.713Z,15.87
2022-10-05T20:39:51.633Z,15.77
2022-10-05T20:42:20.174Z,16.37
2022-10-05T20:44:47.119Z,16.38
2022-10-05T20:47:13.987Z,16.71
2022-10-05T20:49:44.535Z,16.93
2022-10-05T20:52:13.247Z,16.88
2022-10-05T20:54:40.194Z,16.61
2022-10-05T20:57:07.056Z,16.02
2022-10-05T20:59:34.736Z,15.94
2022-10-05T21:02:02.193Z,15.29
2022-10-05T21:04:40.944Z,15.56
2022-10-05T21:07:09.224Z,14.44
2022-10-05T21:09:38.642Z,14.42
2022-10-05T21:12:05.459Z,15.02
2022-10-05T21:14:34.417Z,15.58
2022-10-05T21:17:02.170Z,15.39
2022-10-05T21:19:29.585Z,15.42
2022-10-05T21:21:59.508Z,15.11
2022-10-05T21:24:26.373Z,15.24
2022-10-05T21:26:56.758Z,14.95
2022-10-05T21:29:23.631Z,15.01
2022-10-05T21:31:50.975Z,14.97
2022-10-05T21:34:18.038Z,15.06
2022-10-05T21:36:44.789Z,15.17
2022-10-05T21:39:11.815Z,15.55
2022-10-05T21:41:38.534Z,15.20
2022-10-05T21:44:06.749Z,15.21
2022-10-05T21:46:36.499Z,15.45
2022-10-05T21:49:05.208Z,15.34
2022-10-05T21:51:35.342Z,15.40
2022-10-05T21:54:08.343Z,15.42
2022-10-05T21:56:40.146Z,15.61
2022-10-05T21:59:10.257Z,15.67
2022-10-05T22:01:36.961Z,15.62
2022-10-05T22:04:05.342Z,15.56
2022-10-05T22:06:32.836Z,15.50
2022-10-05T22:08:59.721Z,15.37
2022-10-05T22:11:29.070Z,15.63
2022-10-05T22:14:02.207Z,15.62
2022-10-05T22:16:32.845Z,15.48
2022-10-05T22:19:04.072Z,15.49
2022-10-05T22:21:32.827Z,15.50
2022-10-05T22:24:02.413Z,15.33
2022-10-05T22:26:29.705Z,15.45
2022-10-05T22:28:57.068Z,15.36
2022-10-05T22:31:23.834Z,15.43
2022-10-05T22:33:51.304Z,15.43
2022-10-05T22:36:19.284Z,15.42
2022-10-05T22:38:47.582Z,15.31
2022-10-05T22:41:16.483Z,15.25
2022-10-05T22:43:43.184Z,15.10
2022-10-05T22:46:12.500Z,15.19
2022-10-05T22:48:40.521Z,15.28
2022-10-05T22:51:08.088Z,14.99
2022-10-05T22:53:35.275Z,15.10
2022-10-05T22:56:10.355Z,15.20
2022-10-05T22:58:39.281Z,15.09
2022-10-05T23:01:18.749Z,15.09
2022-10-05T23:03:46.097Z,14.90
2022-10-05T23:06:18.610Z,14.86
2022-10-05T23:08:46.341Z,14.77
2022-10-05T23:11:19.486Z,15.01
2022-10-05T23:13:46.493Z,14.90
2022-10-05T23:16:19.535Z,14.94
2022-10-05T23:18:51.472Z,14.68
2022-10-05T23:21:21.663Z,14.77
2022-10-05T23:23:51.064Z,14.58
2022-10-05T23:26:23.987Z,14.73
2022-10-05T23:28:51.457Z,14.64
2022-10-05T23:31:21.960Z,14.58
2022-10-05T23:33:49.140Z,14.57
2022-10-05T23:36:21.861Z,14.77
2022-10-05T23:38:49.508Z,14.60
2022-10-05T23:41:17.546Z,14.62
2022-10-05T23:43:44.469Z,14.13
2022-10-05T23:46:11.980Z,14.40
2022-10-05T23:48:39.605Z,14.30
2022-10-05T23:51:09.396Z,14.42
2022-10-05T23:53:36.438Z,14.14
2022-10-05T23:56:03.803Z,13.62
2022-10-05T23:58:31.528Z,14.19
